sensor_id;sensor_type;location;lat;lon;timestamp;P1;durP1;ratioP1;P2;durP2;ratioP2
49310;SDS011;35177;45.900;5.946;2023-01-16T00:00:26;224.82;;;29.63;;
49310;SDS011;35177;45.900;5.946;2023-01-16T00:02:51;305.88;;;28.25;;
49310;SDS011;35177;45.900;5.946;2023-01-16T00:05:17;417.85;;;37.20;;
49310;SDS011;35177;45.900;5.946;2023-01-16T00:07:42;457.85;;;37.22;;
49310;SDS011;35177;45.900;5.946;2023-01-16T00:10:08;302.67;;;32.13;;
49310;SDS011;35177;45.900;5.946;2023-01-16T00:12:34;206.93;;;26.60;;
49310;SDS011;35177;45.900;5.946;2023-01-16T00:15:00;227.25;;;30.65;;
49310;SDS011;35177;45.900;5.946;2023-01-16T00:17:25;321.70;;;34.15;;
49310;SDS011;35177;45.900;5.946;2023-01-16T00:19:51;257.83;;;29.60;;
49310;SDS011;35177;45.900;5.946;2023-01-16T00:22:16;298.77;;;27.98;;
49310;SDS011;35177;45.900;5.946;2023-01-16T00:24:42;225.73;;;29.08;;
49310;SDS011;35177;45.900;5.946;2023-01-16T00:27:07;269.48;;;30.95;;
49310;SDS011;35177;45.900;5.946;2023-01-16T00:29:33;253.57;;;29.60;;
49310;SDS011;35177;45.900;5.946;2023-01-16T00:31:59;173.88;;;26.52;;
49310;SDS011;35177;45.900;5.946;2023-01-16T00:34:25;92.82;;;23.42;;
49310;SDS011;35177;45.900;5.946;2023-01-16T00:36:51;208.10;;;27.45;;
49310;SDS011;35177;45.900;5.946;2023-01-16T00:39:16;226.55;;;27.50;;
49310;SDS011;35177;45.900;5.946;2023-01-16T00:41:42;225.77;;;30.85;;
49310;SDS011;35177;45.900;5.946;2023-01-16T00:44:07;244.23;;;30.80;;
49310;SDS011;35177;45.900;5.946;2023-01-16T00:46:33;125.20;;;24.23;;
49310;SDS011;35177;45.900;5.946;2023-01-16T00:48:58;111.32;;;25.42;;
49310;SDS011;35177;45.900;5.946;2023-01-16T00:51:24;162.25;;;28.67;;
49310;SDS011;35177;45.900;5.946;2023-01-16T00:53:49;95.65;;;25.27;;
49310;SDS011;35177;45.900;5.946;2023-01-16T00:56:15;97.88;;;26.10;;
49310;SDS011;35177;45.900;5.946;2023-01-16T00:58:40;82.47;;;24.23;;
49310;SDS011;35177;45.900;5.946;2023-01-16T01:01:05;100.85;;;28.67;;
49310;SDS011;35177;45.900;5.946;2023-01-16T01:03:31;232.10;;;30.88;;
49310;SDS011;35177;45.900;5.946;2023-01-16T01:05:57;344.00;;;39.92;;
49310;SDS011;35177;45.900;5.946;2023-01-16T01:08:22;357.98;;;35.33;;
49310;SDS011;35177;45.900;5.946;2023-01-16T01:10:48;229.07;;;30.70;;
49310;SDS011;35177;45.900;5.946;2023-01-16T01:13:13;131.07;;;27.10;;
49310;SDS011;35177;45.900;5.946;2023-01-16T01:15:39;78.25;;;26.25;;
49310;SDS011;35177;45.900;5.946;2023-01-16T01:18:05;52.92;;;22.33;;
49310;SDS011;35177;45.900;5.946;2023-01-16T01:20:31;54.83;;;23.00;;
49310;SDS011;35177;45.900;5.946;2023-01-16T01:22:57;47.00;;;21.27;;
49310;SDS011;35177;45.900;5.946;2023-01-16T01:25:22;50.67;;;22.00;;
49310;SDS011;35177;45.900;5.946;2023-01-16T01:27:49;51.75;;;22.80;;
49310;SDS011;35177;45.900;5.946;2023-01-16T01:30:14;79.45;;;23.52;;
49310;SDS011;35177;45.900;5.946;2023-01-16T01:32:40;291.15;;;35.40;;
49310;SDS011;35177;45.900;5.946;2023-01-16T01:35:06;427.65;;;42.85;;
49310;SDS011;35177;45.900;5.946;2023-01-16T01:37:33;110.63;;;22.38;;
49310;SDS011;35177;45.900;5.946;2023-01-16T01:40:00;61.47;;;22.70;;
49310;SDS011;35177;45.900;5.946;2023-01-16T01:42:26;61.83;;;20.83;;
49310;SDS011;35177;45.900;5.946;2023-01-16T01:45:29;44.95;;;21.98;;
49310;SDS011;35177;45.900;5.946;2023-01-16T01:53:17;44.33;;;22.30;;
49310;SDS011;35177;45.900;5.946;2023-01-16T01:55:47;40.40;;;19.88;;
49310;SDS011;35177;45.900;5.946;2023-01-16T01:58:15;43.35;;;21.33;;
49310;SDS011;35177;45.900;5.946;2023-01-16T02:00:47;39.03;;;20.60;;
49310;SDS011;35177;45.900;5.946;2023-01-16T02:03:17;36.55;;;19.52;;
49310;SDS011;35177;45.900;5.946;2023-01-16T02:05:51;33.63;;;18.33;;
49310;SDS011;35177;45.900;5.946;2023-01-16T02:08:21;36.50;;;18.63;;
49310;SDS011;35177;45.900;5.946;2023-01-16T02:13:21;36.40;;;20.65;;
49310;SDS011;35177;45.900;5.946;2023-01-16T02:15:47;39.25;;;20.83;;
49310;SDS011;35177;45.900;5.946;2023-01-16T02:18:31;39.45;;;21.05;;
49310;SDS011;35177;45.900;5.946;2023-01-16T02:34:58;31.40;;;17.95;;
49310;SDS011;35177;45.900;5.946;2023-01-16T02:37:49;30.55;;;17.42;;
49310;SDS011;35177;45.900;5.946;2023-01-16T02:43:23;32.40;;;18.20;;
49310;SDS011;35177;45.900;5.946;2023-01-16T02:48:49;35.28;;;19.02;;
49310;SDS011;35177;45.900;5.946;2023-01-16T02:51:43;35.85;;;17.75;;
49310;SDS011;35177;45.900;5.946;2023-01-16T02:55:04;35.45;;;19.05;;
49310;SDS011;35177;45.900;5.946;2023-01-16T02:57:17;29.15;;;15.32;;
49310;SDS011;35177;45.900;5.946;2023-01-16T02:59:44;30.10;;;14.95;;
49310;SDS011;35177;45.900;5.946;2023-01-16T03:02:12;29.73;;;14.65;;
49310;SDS011;35177;45.900;5.946;2023-01-16T03:04:46;27.58;;;15.40;;
49310;SDS011;35177;45.900;5.946;2023-01-16T03:13:05;31.90;;;15.07;;
49310;SDS011;35177;45.900;5.946;2023-01-16T03:21:10;17.33;;;10.80;;
49310;SDS011;35177;45.900;5.946;2023-01-16T03:29:17;22.15;;;12.45;;
49310;SDS011;35177;45.900;5.946;2023-01-16T03:34:50;20.85;;;12.15;;
49310;SDS011;35177;45.900;5.946;2023-01-16T03:37:27;17.73;;;10.52;;
49310;SDS011;35177;45.900;5.946;2023-01-16T03:39:58;15.07;;;9.38;;
49310;SDS011;35177;45.900;5.946;2023-01-16T03:42:42;15.38;;;9.15;;
49310;SDS011;35177;45.900;5.946;2023-01-16T03:45:38;12.27;;;8.95;;
49310;SDS011;35177;45.900;5.946;2023-01-16T03:48:09;13.45;;;8.10;;
49310;SDS011;35177;45.900;5.946;2023-01-16T03:50:40;17.52;;;8.80;;
49310;SDS011;35177;45.900;5.946;2023-01-16T03:53:10;12.68;;;7.93;;
49310;SDS011;35177;45.900;5.946;2023-01-16T03:55:41;15.43;;;10.00;;
49310;SDS011;35177;45.900;5.946;2023-01-16T03:58:22;17.67;;;8.82;;
49310;SDS011;35177;45.900;5.946;2023-01-16T04:03:59;16.23;;;9.63;;
49310;SDS011;35177;45.900;5.946;2023-01-16T04:09:19;13.23;;;7.75;;
49310;SDS011;35177;45.900;5.946;2023-01-16T04:11:52;14.43;;;8.73;;
49310;SDS011;35177;45.900;5.946;2023-01-16T04:14:19;15.77;;;9.05;;
49310;SDS011;35177;45.900;5.946;2023-01-16T04:16:47;14.75;;;9.68;;
49310;SDS011;35177;45.900;5.946;2023-01-16T04:19:15;12.63;;;8.38;;
49310;SDS011;35177;45.900;5.946;2023-01-16T04:21:44;15.02;;;8.93;;
49310;SDS011;35177;45.900;5.946;2023-01-16T04:24:12;13.13;;;8.15;;
49310;SDS011;35177;45.900;5.946;2023-01-16T04:26:39;11.85;;;7.53;;
49310;SDS011;35177;45.900;5.946;2023-01-16T04:29:05;11.70;;;7.85;;
49310;SDS011;35177;45.900;5.946;2023-01-16T04:31:30;11.75;;;7.53;;
49310;SDS011;35177;45.900;5.946;2023-01-16T04:33:56;12.57;;;7.35;;
49310;SDS011;35177;45.900;5.946;2023-01-16T04:36:22;10.73;;;6.82;;
49310;SDS011;35177;45.900;5.946;2023-01-16T04:38:48;10.73;;;6.97;;
49310;SDS011;35177;45.900;5.946;2023-01-16T04:41:13;9.90;;;6.85;;
49310;SDS011;35177;45.900;5.946;2023-01-16T04:43:58;9.95;;;6.38;;
49310;SDS011;35177;45.900;5.946;2023-01-16T04:46:24;9.75;;;6.97;;
49310;SDS011;35177;45.900;5.946;2023-01-16T04:48:49;9.95;;;6.65;;
49310;SDS011;35177;45.900;5.946;2023-01-16T04:51:15;10.15;;;6.68;;
49310;SDS011;35177;45.900;5.946;2023-01-16T04:53:40;13.52;;;6.80;;
49310;SDS011;35177;45.900;5.946;2023-01-16T04:56:06;11.18;;;7.15;;
49310;SDS011;35177;45.900;5.946;2023-01-16T04:58:31;12.40;;;8.18;;
49310;SDS011;35177;45.900;5.946;2023-01-16T05:00:57;15.07;;;9.00;;
49310;SDS011;35177;45.900;5.946;2023-01-16T05:03:22;17.17;;;9.60;;
49310;SDS011;35177;45.900;5.946;2023-01-16T05:05:48;17.30;;;9.23;;
49310;SDS011;35177;45.900;5.946;2023-01-16T05:08:13;16.33;;;9.55;;
49310;SDS011;35177;45.900;5.946;2023-01-16T05:10:42;15.80;;;9.40;;
49310;SDS011;35177;45.900;5.946;2023-01-16T05:13:07;17.42;;;11.43;;
49310;SDS011;35177;45.900;5.946;2023-01-16T05:15:33;19.90;;;12.82;;
49310;SDS011;35177;45.900;5.946;2023-01-16T05:17:58;20.90;;;12.10;;
49310;SDS011;35177;45.900;5.946;2023-01-16T05:20:24;13.98;;;8.52;;
49310;SDS011;35177;45.900;5.946;2023-01-16T05:22:49;13.13;;;8.30;;
49310;SDS011;35177;45.900;5.946;2023-01-16T05:25:15;10.20;;;7.28;;
49310;SDS011;35177;45.900;5.946;2023-01-16T05:27:40;13.57;;;7.75;;
49310;SDS011;35177;45.900;5.946;2023-01-16T05:30:06;11.27;;;7.40;;
49310;SDS011;35177;45.900;5.946;2023-01-16T05:32:32;11.32;;;7.43;;
49310;SDS011;35177;45.900;5.946;2023-01-16T05:34:58;13.52;;;7.65;;
49310;SDS011;35177;45.900;5.946;2023-01-16T05:37:27;23.17;;;12.27;;
49310;SDS011;35177;45.900;5.946;2023-01-16T05:39:53;47.10;;;23.10;;
49310;SDS011;35177;45.900;5.946;2023-01-16T05:42:22;42.15;;;19.80;;
49310;SDS011;35177;45.900;5.946;2023-01-16T05:44:50;31.27;;;15.95;;
49310;SDS011;35177;45.900;5.946;2023-01-16T05:47:19;31.95;;;16.45;;
49310;SDS011;35177;45.900;5.946;2023-01-16T05:49:45;9.43;;;6.22;;
49310;SDS011;35177;45.900;5.946;2023-01-16T05:52:11;10.32;;;5.65;;
49310;SDS011;35177;45.900;5.946;2023-01-16T05:54:37;10.77;;;6.45;;
49310;SDS011;35177;45.900;5.946;2023-01-16T05:57:02;10.38;;;6.15;;
49310;SDS011;35177;45.900;5.946;2023-01-16T05:59:28;11.93;;;6.45;;
49310;SDS011;35177;45.900;5.946;2023-01-16T06:01:53;10.25;;;6.63;;
49310;SDS011;35177;45.900;5.946;2023-01-16T06:04:19;13.15;;;7.88;;
49310;SDS011;35177;45.900;5.946;2023-01-16T06:06:45;32.05;;;18.30;;
49310;SDS011;35177;45.900;5.946;2023-01-16T06:09:11;16.23;;;9.77;;
49310;SDS011;35177;45.900;5.946;2023-01-16T06:11:37;17.27;;;8.50;;
49310;SDS011;35177;45.900;5.946;2023-01-16T06:14:02;11.80;;;6.70;;
49310;SDS011;35177;45.900;5.946;2023-01-16T06:16:32;6.32;;;5.03;;
49310;SDS011;35177;45.900;5.946;2023-01-16T06:18:59;9.77;;;4.20;;
49310;SDS011;35177;45.900;5.946;2023-01-16T06:21:25;6.22;;;3.75;;
49310;SDS011;35177;45.900;5.946;2023-01-16T06:23:51;5.78;;;3.70;;
49310;SDS011;35177;45.900;5.946;2023-01-16T06:26:16;8.13;;;5.38;;
49310;SDS011;35177;45.900;5.946;2023-01-16T06:28:42;10.15;;;5.50;;
49310;SDS011;35177;45.900;5.946;2023-01-16T06:31:07;5.68;;;3.42;;
49310;SDS011;35177;45.900;5.946;2023-01-16T06:33:33;10.00;;;5.28;;
49310;SDS011;35177;45.900;5.946;2023-01-16T06:35:59;6.57;;;3.42;;
49310;SDS011;35177;45.900;5.946;2023-01-16T06:38:25;5.10;;;3.58;;
49310;SDS011;35177;45.900;5.946;2023-01-16T06:40:51;5.38;;;3.25;;
49310;SDS011;35177;45.900;5.946;2023-01-16T06:43:24;5.95;;;3.90;;
49310;SDS011;35177;45.900;5.946;2023-01-16T06:45:50;4.72;;;3.35;;
49310;SDS011;35177;45.900;5.946;2023-01-16T06:48:16;6.40;;;4.47;;
49310;SDS011;35177;45.900;5.946;2023-01-16T06:50:42;6.88;;;4.13;;
49310;SDS011;35177;45.900;5.946;2023-01-16T06:53:11;9.48;;;5.63;;
49310;SDS011;35177;45.900;5.946;2023-01-16T06:55:37;12.90;;;6.53;;
49310;SDS011;35177;45.900;5.946;2023-01-16T06:58:04;11.50;;;7.55;;
49310;SDS011;35177;45.900;5.946;2023-01-16T07:00:29;12.55;;;8.07;;
49310;SDS011;35177;45.900;5.946;2023-01-16T07:02:56;12.45;;;7.72;;
49310;SDS011;35177;45.900;5.946;2023-01-16T07:05:22;13.45;;;6.70;;
49310;SDS011;35177;45.900;5.946;2023-01-16T07:07:49;8.18;;;5.25;;
49310;SDS011;35177;45.900;5.946;2023-01-16T07:10:15;9.23;;;3.90;;
49310;SDS011;35177;45.900;5.946;2023-01-16T07:12:42;6.50;;;2.78;;
49310;SDS011;35177;45.900;5.946;2023-01-16T07:15:08;4.55;;;2.88;;
49310;SDS011;35177;45.900;5.946;2023-01-16T07:20:37;3.65;;;2.25;;
49310;SDS011;35177;45.900;5.946;2023-01-16T07:23:22;4.15;;;2.30;;
49310;SDS011;35177;45.900;5.946;2023-01-16T07:25:59;3.85;;;2.38;;
49310;SDS011;35177;45.900;5.946;2023-01-16T07:28:27;2.90;;;1.95;;
49310;SDS011;35177;45.900;5.946;2023-01-16T07:30:53;3.92;;;2.13;;
49310;SDS011;35177;45.900;5.946;2023-01-16T07:33:22;4.47;;;2.33;;
49310;SDS011;35177;45.900;5.946;2023-01-16T07:35:47;4.47;;;2.17;;
49310;SDS011;35177;45.900;5.946;2023-01-16T07:38:13;3.35;;;2.05;;
49310;SDS011;35177;45.900;5.946;2023-01-16T07:40:38;3.47;;;2.22;;
49310;SDS011;35177;45.900;5.946;2023-01-16T07:43:04;2.90;;;2.05;;
49310;SDS011;35177;45.900;5.946;2023-01-16T07:45:30;4.93;;;2.63;;
49310;SDS011;35177;45.900;5.946;2023-01-16T07:47:55;5.50;;;2.30;;
49310;SDS011;35177;45.900;5.946;2023-01-16T07:50:21;3.72;;;1.98;;
49310;SDS011;35177;45.900;5.946;2023-01-16T07:52:46;4.07;;;2.30;;
49310;SDS011;35177;45.900;5.946;2023-01-16T07:55:12;4.78;;;2.20;;
49310;SDS011;35177;45.900;5.946;2023-01-16T07:57:38;5.38;;;2.13;;
49310;SDS011;35177;45.900;5.946;2023-01-16T08:00:05;3.13;;;2.13;;
49310;SDS011;35177;45.900;5.946;2023-01-16T08:02:32;3.80;;;2.05;;
49310;SDS011;35177;45.900;5.946;2023-01-16T08:04:57;2.03;;;1.70;;
49310;SDS011;35177;45.900;5.946;2023-01-16T08:07:23;5.20;;;2.35;;
49310;SDS011;35177;45.900;5.946;2023-01-16T08:09:48;5.85;;;2.05;;
49310;SDS011;35177;45.900;5.946;2023-01-16T08:12:14;3.25;;;2.03;;
49310;SDS011;35177;45.900;5.946;2023-01-16T08:14:39;3.03;;;1.70;;
49310;SDS011;35177;45.900;5.946;2023-01-16T08:17:05;3.92;;;1.90;;
49310;SDS011;35177;45.900;5.946;2023-01-16T08:19:30;3.67;;;2.00;;
49310;SDS011;35177;45.900;5.946;2023-01-16T08:21:56;2.70;;;1.77;;
49310;SDS011;35177;45.900;5.946;2023-01-16T08:24:22;2.75;;;1.60;;
49310;SDS011;35177;45.900;5.946;2023-01-16T08:26:50;3.97;;;1.67;;
49310;SDS011;35177;45.900;5.946;2023-01-16T08:29:16;4.32;;;1.88;;
49310;SDS011;35177;45.900;5.946;2023-01-16T08:31:42;3.47;;;1.98;;
49310;SDS011;35177;45.900;5.946;2023-01-16T08:34:07;4.57;;;1.90;;
49310;SDS011;35177;45.900;5.946;2023-01-16T08:36:33;2.88;;;1.92;;
49310;SDS011;35177;45.900;5.946;2023-01-16T08:38:59;4.28;;;2.15;;
49310;SDS011;35177;45.900;5.946;2023-01-16T08:41:25;2.10;;;1.70;;
49310;SDS011;35177;45.900;5.946;2023-01-16T08:44:09;2.80;;;1.88;;
49310;SDS011;35177;45.900;5.946;2023-01-16T08:49:43;2.42;;;1.88;;
49310;SDS011;35177;45.900;5.946;2023-01-16T08:52:28;1.88;;;1.30;;
49310;SDS011;35177;45.900;5.946;2023-01-16T08:54:56;2.88;;;1.50;;
49310;SDS011;35177;45.900;5.946;2023-01-16T08:57:23;4.32;;;1.42;;
49310;SDS011;35177;45.900;5.946;2023-01-16T08:59:48;3.53;;;1.40;;
49310;SDS011;35177;45.900;5.946;2023-01-16T09:02:14;3.67;;;1.52;;
49310;SDS011;35177;45.900;5.946;2023-01-16T09:04:40;2.30;;;1.65;;
49310;SDS011;35177;45.900;5.946;2023-01-16T09:07:06;3.10;;;1.80;;
49310;SDS011;35177;45.900;5.946;2023-01-16T09:09:31;2.45;;;1.70;;
49310;SDS011;35177;45.900;5.946;2023-01-16T09:11:57;2.88;;;1.55;;
49310;SDS011;35177;45.900;5.946;2023-01-16T09:14:41;3.60;;;2.05;;
49310;SDS011;35177;45.900;5.946;2023-01-16T09:17:07;4.00;;;1.83;;
49310;SDS011;35177;45.900;5.946;2023-01-16T09:19:33;5.22;;;2.85;;
49310;SDS011;35177;45.900;5.946;2023-01-16T09:21:59;3.35;;;1.83;;
49310;SDS011;35177;45.900;5.946;2023-01-16T09:24:25;4.00;;;2.17;;
49310;SDS011;35177;45.900;5.946;2023-01-16T09:26:51;2.63;;;1.60;;
49310;SDS011;35177;45.900;5.946;2023-01-16T09:29:16;4.95;;;2.30;;
49310;SDS011;35177;45.900;5.946;2023-01-16T09:31:42;4.22;;;1.42;;
49310;SDS011;35177;45.900;5.946;2023-01-16T09:34:07;2.45;;;1.55;;
49310;SDS011;35177;45.900;5.946;2023-01-16T09:36:33;3.38;;;1.90;;
49310;SDS011;35177;45.900;5.946;2023-01-16T09:38:58;4.45;;;2.05;;
49310;SDS011;35177;45.900;5.946;2023-01-16T09:41:24;3.20;;;1.90;;
49310;SDS011;35177;45.900;5.946;2023-01-16T09:44:11;4.25;;;1.67;;
49310;SDS011;35177;45.900;5.946;2023-01-16T09:46:40;3.40;;;2.05;;
49310;SDS011;35177;45.900;5.946;2023-01-16T09:49:26;2.20;;;1.40;;
49310;SDS011;35177;45.900;5.946;2023-01-16T09:51:54;1.63;;;1.00;;
49310;SDS011;35177;45.900;5.946;2023-01-16T09:54:48;1.55;;;0.60;;
49310;SDS011;35177;45.900;5.946;2023-01-16T09:57:38;2.22;;;0.80;;
49310;SDS011;35177;45.900;5.946;2023-01-16T10:00:23;0.63;;;0.63;;
49310;SDS011;35177;45.900;5.946;2023-01-16T10:02:51;1.58;;;0.70;;
49310;SDS011;35177;45.900;5.946;2023-01-16T10:05:17;1.33;;;0.90;;
49310;SDS011;35177;45.900;5.946;2023-01-16T10:07:50;0.63;;;0.50;;
49310;SDS011;35177;45.900;5.946;2023-01-16T10:20:52;0.25;;;0.20;;
49310;SDS011;35177;45.900;5.946;2023-01-16T10:23:48;0.80;;;0.40;;
49310;SDS011;35177;45.900;5.946;2023-01-16T10:29:17;1.20;;;0.70;;
49310;SDS011;35177;45.900;5.946;2023-01-16T10:31:49;1.73;;;1.30;;
49310;SDS011;35177;45.900;5.946;2023-01-16T10:34:33;2.10;;;1.15;;
49310;SDS011;35177;45.900;5.946;2023-01-16T10:37:05;2.58;;;1.42;;
49310;SDS011;35177;45.900;5.946;2023-01-16T10:39:32;3.30;;;1.48;;
49310;SDS011;35177;45.900;5.946;2023-01-16T10:42:08;2.25;;;1.70;;
49310;SDS011;35177;45.900;5.946;2023-01-16T10:44:56;4.28;;;2.30;;
49310;SDS011;35177;45.900;5.946;2023-01-16T10:47:47;4.70;;;1.95;;
49310;SDS011;35177;45.900;5.946;2023-01-16T10:50:33;7.28;;;3.33;;
49310;SDS011;35177;45.900;5.946;2023-01-16T10:53:00;3.72;;;1.48;;
49310;SDS011;35177;45.900;5.946;2023-01-16T10:55:25;5.07;;;1.40;;
49310;SDS011;35177;45.900;5.946;2023-01-16T10:57:52;3.05;;;1.58;;
49310;SDS011;35177;45.900;5.946;2023-01-16T11:00:32;2.30;;;1.35;;
49310;SDS011;35177;45.900;5.946;2023-01-16T11:03:01;4.13;;;1.30;;
49310;SDS011;35177;45.900;5.946;2023-01-16T11:05:36;5.25;;;1.40;;
49310;SDS011;35177;45.900;5.946;2023-01-16T11:08:11;2.72;;;1.50;;
49310;SDS011;35177;45.900;5.946;2023-01-16T11:10:42;2.88;;;1.73;;
49310;SDS011;35177;45.900;5.946;2023-01-16T11:16:03;4.35;;;1.92;;
49310;SDS011;35177;45.900;5.946;2023-01-16T11:21:44;3.20;;;1.60;;
49310;SDS011;35177;45.900;5.946;2023-01-16T11:26:46;2.00;;;1.30;;
49310;SDS011;35177;45.900;5.946;2023-01-16T11:29:16;8.15;;;5.40;;
49310;SDS011;35177;45.900;5.946;2023-01-16T11:31:46;1.90;;;1.50;;
49310;SDS011;35177;45.900;5.946;2023-01-16T11:34:14;3.83;;;2.35;;
49310;SDS011;35177;45.900;5.946;2023-01-16T11:36:40;3.80;;;1.92;;
49310;SDS011;35177;45.900;5.946;2023-01-16T11:39:06;0.55;;;0.47;;
49310;SDS011;35177;45.900;5.946;2023-01-16T11:41:49;1.52;;;0.73;;
49310;SDS011;35177;45.900;5.946;2023-01-16T11:47:04;0.93;;;0.55;;
49310;SDS011;35177;45.900;5.946;2023-01-16T11:49:34;1.17;;;0.60;;
49310;SDS011;35177;45.900;5.946;2023-01-16T11:52:03;4.97;;;2.60;;
49310;SDS011;35177;45.900;5.946;2023-01-16T11:54:33;2.33;;;1.65;;
49310;SDS011;35177;45.900;5.946;2023-01-16T11:57:09;9.63;;;5.75;;
49310;SDS011;35177;45.900;5.946;2023-01-16T12:02:13;5.18;;;2.85;;
49310;SDS011;35177;45.900;5.946;2023-01-16T12:13:09;1.23;;;0.80;;
49310;SDS011;35177;45.900;5.946;2023-01-16T12:15:59;3.10;;;1.40;;
49310;SDS011;35177;45.900;5.946;2023-01-16T12:26:50;8.32;;;4.45;;
49310;SDS011;35177;45.900;5.946;2023-01-16T12:29:33;2.40;;;1.40;;
49310;SDS011;35177;45.900;5.946;2023-01-16T12:32:26;2.60;;;0.70;;
49310;SDS011;35177;45.900;5.946;2023-01-16T12:35:15;3.10;;;1.70;;
49310;SDS011;35177;45.900;5.946;2023-01-16T12:37:58;1.95;;;0.43;;
49310;SDS011;35177;45.900;5.946;2023-01-16T12:43:47;3.60;;;1.20;;
49310;SDS011;35177;45.900;5.946;2023-01-16T12:46:18;0.52;;;0.40;;
49310;SDS011;35177;45.900;5.946;2023-01-16T12:49:05;0.87;;;0.50;;
49310;SDS011;35177;45.900;5.946;2023-01-16T12:51:57;3.30;;;0.90;;
49310;SDS011;35177;45.900;5.946;2023-01-16T12:54:49;2.65;;;0.93;;
49310;SDS011;35177;45.900;5.946;2023-01-16T13:00:40;4.60;;;1.02;;
49310;SDS011;35177;45.900;5.946;2023-01-16T13:03:16;2.50;;;0.70;;
49310;SDS011;35177;45.900;5.946;2023-01-16T13:05:43;3.08;;;2.20;;
49310;SDS011;35177;45.900;5.946;2023-01-16T13:10:39;1.70;;;0.77;;
49310;SDS011;35177;45.900;5.946;2023-01-16T13:13:29;1.40;;;0.45;;
49310;SDS011;35177;45.900;5.946;2023-01-16T13:16:03;2.05;;;0.75;;
49310;SDS011;35177;45.900;5.946;2023-01-16T13:18:34;2.08;;;0.70;;
49310;SDS011;35177;45.900;5.946;2023-01-16T13:21:07;5.47;;;0.80;;
49310;SDS011;35177;45.900;5.946;2023-01-16T13:23:39;7.60;;;2.38;;
49310;SDS011;35177;45.900;5.946;2023-01-16T13:26:20;21.60;;;7.72;;
49310;SDS011;35177;45.900;5.946;2023-01-16T13:31:42;3.60;;;1.73;;
49310;SDS011;35177;45.900;5.946;2023-01-16T13:34:35;5.25;;;3.13;;
49310;SDS011;35177;45.900;5.946;2023-01-16T13:42:38;5.82;;;1.92;;
49310;SDS011;35177;45.900;5.946;2023-01-16T13:45:23;10.18;;;2.90;;
49310;SDS011;35177;45.900;5.946;2023-01-16T13:48:18;1.40;;;1.00;;
49310;SDS011;35177;45.900;5.946;2023-01-16T13:50:55;4.68;;;3.40;;
49310;SDS011;35177;45.900;5.946;2023-01-16T13:53:26;5.07;;;2.80;;
49310;SDS011;35177;45.900;5.946;2023-01-16T13:56:08;5.47;;;1.70;;
49310;SDS011;35177;45.900;5.946;2023-01-16T13:58:38;6.18;;;2.67;;
49310;SDS011;35177;45.900;5.946;2023-01-16T14:01:06;4.00;;;2.30;;
49310;SDS011;35177;45.900;5.946;2023-01-16T14:06:55;2.03;;;0.93;;
49310;SDS011;35177;45.900;5.946;2023-01-16T14:12:44;2.20;;;1.20;;
49310;SDS011;35177;45.900;5.946;2023-01-16T14:15:25;6.75;;;3.00;;
49310;SDS011;35177;45.900;5.946;2023-01-16T14:18:37;1.13;;;0.50;;
49310;SDS011;35177;45.900;5.946;2023-01-16T14:21:08;3.03;;;1.10;;
49310;SDS011;35177;45.900;5.946;2023-01-16T14:23:40;2.45;;;0.85;;
49310;SDS011;35177;45.900;5.946;2023-01-16T14:31:56;6.22;;;3.85;;
49310;SDS011;35177;45.900;5.946;2023-01-16T14:37:21;4.63;;;2.85;;
49310;SDS011;35177;45.900;5.946;2023-01-16T14:40:37;5.00;;;2.25;;
49310;SDS011;35177;45.900;5.946;2023-01-16T14:42:47;2.17;;;1.27;;
49310;SDS011;35177;45.900;5.946;2023-01-16T14:45:34;4.28;;;3.50;;
49310;SDS011;35177;45.900;5.946;2023-01-16T14:51:33;2.90;;;1.70;;
49310;SDS011;35177;45.900;5.946;2023-01-16T14:54:27;2.60;;;1.27;;
49310;SDS011;35177;45.900;5.946;2023-01-16T14:57:16;4.00;;;1.67;;
49310;SDS011;35177;45.900;5.946;2023-01-16T15:00:06;3.88;;;1.48;;
49310;SDS011;35177;45.900;5.946;2023-01-16T15:02:46;1.30;;;0.85;;
49310;SDS011;35177;45.900;5.946;2023-01-16T15:07:53;3.20;;;1.35;;
49310;SDS011;35177;45.900;5.946;2023-01-16T15:12:46;1.33;;;0.80;;
49310;SDS011;35177;45.900;5.946;2023-01-16T15:15:19;4.05;;;1.02;;
49310;SDS011;35177;45.900;5.946;2023-01-16T15:17:53;1.98;;;1.23;;
49310;SDS011;35177;45.900;5.946;2023-01-16T15:20:41;1.48;;;0.80;;
49310;SDS011;35177;45.900;5.946;2023-01-16T15:23:28;2.10;;;0.82;;
49310;SDS011;35177;45.900;5.946;2023-01-16T15:33:34;3.20;;;0.73;;
49310;SDS011;35177;45.900;5.946;2023-01-16T15:36:23;3.85;;;0.80;;
49310;SDS011;35177;45.900;5.946;2023-01-16T15:45:14;2.47;;;0.77;;
49310;SDS011;35177;45.900;5.946;2023-01-16T15:51:02;2.17;;;1.25;;
49310;SDS011;35177;45.900;5.946;2023-01-16T15:53:36;1.13;;;0.80;;
49310;SDS011;35177;45.900;5.946;2023-01-16T15:56:07;2.43;;;1.60;;
49310;SDS011;35177;45.900;5.946;2023-01-16T15:58:42;0.93;;;0.70;;
49310;SDS011;35177;45.900;5.946;2023-01-16T16:01:08;4.93;;;1.35;;
49310;SDS011;35177;45.900;5.946;2023-01-16T16:03:41;1.38;;;0.68;;
49310;SDS011;35177;45.900;5.946;2023-01-16T16:06:11;2.15;;;0.85;;
49310;SDS011;35177;45.900;5.946;2023-01-16T16:08:40;0.80;;;0.70;;
49310;SDS011;35177;45.900;5.946;2023-01-16T16:11:22;2.35;;;1.70;;
49310;SDS011;35177;45.900;5.946;2023-01-16T16:17:20;3.47;;;2.72;;
49310;SDS011;35177;45.900;5.946;2023-01-16T16:31:04;2.45;;;1.38;;
49310;SDS011;35177;45.900;5.946;2023-01-16T16:33:36;2.60;;;1.83;;
49310;SDS011;35177;45.900;5.946;2023-01-16T16:36:02;1.92;;;1.38;;
49310;SDS011;35177;45.900;5.946;2023-01-16T16:38:29;1.38;;;0.80;;
49310;SDS011;35177;45.900;5.946;2023-01-16T16:43:42;2.17;;;0.82;;
49310;SDS011;35177;45.900;5.946;2023-01-16T16:48:53;3.33;;;1.08;;
49310;SDS011;35177;45.900;5.946;2023-01-16T16:51:21;3.88;;;1.75;;
49310;SDS011;35177;45.900;5.946;2023-01-16T16:53:58;3.53;;;2.53;;
49310;SDS011;35177;45.900;5.946;2023-01-16T16:56:28;5.80;;;3.70;;
49310;SDS011;35177;45.900;5.946;2023-01-16T16:58:57;2.28;;;0.82;;
49310;SDS011;35177;45.900;5.946;2023-01-16T17:01:23;4.57;;;1.45;;
49310;SDS011;35177;45.900;5.946;2023-01-16T17:03:51;7.05;;;3.58;;
49310;SDS011;35177;45.900;5.946;2023-01-16T17:06:20;7.18;;;2.13;;
49310;SDS011;35177;45.900;5.946;2023-01-16T17:08:48;4.13;;;1.40;;
49310;SDS011;35177;45.900;5.946;2023-01-16T17:11:14;3.25;;;1.05;;
49310;SDS011;35177;45.900;5.946;2023-01-16T17:13:40;6.55;;;2.42;;
49310;SDS011;35177;45.900;5.946;2023-01-16T17:16:22;3.28;;;1.00;;
49310;SDS011;35177;45.900;5.946;2023-01-16T17:18:52;7.30;;;2.75;;
49310;SDS011;35177;45.900;5.946;2023-01-16T17:21:22;7.20;;;3.42;;
49310;SDS011;35177;45.900;5.946;2023-01-16T17:23:48;1.83;;;1.10;;
49310;SDS011;35177;45.900;5.946;2023-01-16T17:26:14;1.70;;;0.80;;
49310;SDS011;35177;45.900;5.946;2023-01-16T17:28:40;2.70;;;1.00;;
49310;SDS011;35177;45.900;5.946;2023-01-16T17:31:09;1.80;;;0.90;;
49310;SDS011;35177;45.900;5.946;2023-01-16T17:33:40;2.58;;;1.38;;
49310;SDS011;35177;45.900;5.946;2023-01-16T17:36:06;5.90;;;3.38;;
49310;SDS011;35177;45.900;5.946;2023-01-16T17:38:40;2.00;;;1.70;;
49310;SDS011;35177;45.900;5.946;2023-01-16T17:41:17;1.38;;;0.80;;
49310;SDS011;35177;45.900;5.946;2023-01-16T17:43:48;2.88;;;1.30;;
49310;SDS011;35177;45.900;5.946;2023-01-16T17:46:32;1.98;;;1.38;;
49310;SDS011;35177;45.900;5.946;2023-01-16T17:48:57;4.18;;;1.38;;
49310;SDS011;35177;45.900;5.946;2023-01-16T17:51:23;4.97;;;1.83;;
49310;SDS011;35177;45.900;5.946;2023-01-16T17:53:52;3.30;;;1.70;;
49310;SDS011;35177;45.900;5.946;2023-01-16T17:56:21;2.10;;;1.60;;
49310;SDS011;35177;45.900;5.946;2023-01-16T17:58:47;5.88;;;3.67;;
49310;SDS011;35177;45.900;5.946;2023-01-16T18:01:16;13.05;;;7.63;;